Time;durP1;ratioP1;P1;durP2;ratioP2;P2;SDS_P1;SDS_P2;PMS_P1;PMS_P2;Temp;Humidity;BMP_temperature;BMP_pressure;BME280_temperature;BME280_humidity;BME280_pressure;Samples;Min_cycle;Max_cycle;Signal;HPM_P1;HPM_P2
2021/09/24 00:01:50;;;;;;;7.93;5.32;;;16.70;99.90;;;;;;5093956;28;20173;-83
2021/09/24 00:04:16;;;;;;;7.13;5.03;;;16.70;99.90;;;;;;5094141;28;20170;-82
2021/09/24 00:06:43;;;;;;;22.77;6.40;;;16.60;99.90;;;;;;5094219;28;20162;-79
2021/09/24 00:09:10;;;;;;;9.18;5.53;;;16.70;99.90;;;;;;5094164;28;20609;-76
2021/09/24 00:11:37;;;;;;;14.25;6.57;;;16.70;99.90;;;;;;5093995;28;20184;-78
2021/09/24 00:14:05;;;;;;;12.10;5.40;;;16.80;99.90;;;;;;5093898;28;20245;-80
2021/09/24 00:16:31;;;;;;;12.23;6.38;;;16.90;99.90;;;;;;5092465;28;20637;-85
2021/09/24 00:18:57;;;;;;;7.13;5.88;;;17.00;99.90;;;;;;5093542;28;20174;-83
2021/09/24 00:21:23;;;;;;;17.17;5.80;;;17.00;99.90;;;;;;5093960;28;20579;-83
2021/09/24 00:23:48;;;;;;;8.25;5.47;;;17.00;99.90;;;;;;5094248;28;20661;-75
2021/09/24 00:26:14;;;;;;;9.80;6.40;;;17.10;99.90;;;;;;5093992;28;20177;-84
2021/09/24 00:28:40;;;;;;;9.00;5.97;;;17.10;99.90;;;;;;5093832;28;20267;-83
2021/09/24 00:31:05;;;;;;;6.45;5.68;;;17.10;99.90;;;;;;5093917;28;20170;-78
2021/09/24 00:33:31;;;;;;;12.88;5.78;;;17.00;99.90;;;;;;5093313;28;20530;-80
2021/09/24 00:35:57;;;;;;;7.25;5.68;;;16.90;99.90;;;;;;5093690;28;20219;-81
2021/09/24 00:38:24;;;;;;;14.25;6.57;;;16.90;99.90;;;;;;5095114;28;20585;-75
2021/09/24 00:40:50;;;;;;;9.60;6.32;;;16.90;99.90;;;;;;5111322;28;20184;-76
2021/09/24 00:43:16;;;;;;;12.80;6.20;;;16.90;99.90;;;;;;5108956;28;20161;-75
2021/09/24 00:45:42;;;;;;;15.52;6.85;;;16.90;99.90;;;;;;5109057;28;20572;-83
2021/09/24 00:48:08;;;;;;;8.95;6.85;;;17.00;99.90;;;;;;5094514;28;20272;-85
2021/09/24 00:50:33;;;;;;;13.45;6.90;;;17.00;99.90;;;;;;5093751;28;20165;-77
2021/09/24 00:52:59;;;;;;;9.52;6.15;;;17.20;99.90;;;;;;5093557;28;20165;-84
2021/09/24 00:55:26;;;;;;;11.93;6.40;;;17.30;99.90;;;;;;5093471;28;20170;-82
2021/09/24 00:57:51;;;;;;;8.93;6.65;;;17.20;99.90;;;;;;5092672;28;20177;-75
2021/09/24 01:00:18;;;;;;;12.00;7.22;;;17.00;99.90;;;;;;5092741;28;20162;-76
2021/09/24 01:02:44;;;;;;;15.00;7.07;;;17.10;99.90;;;;;;5092073;28;20672;-76
2021/09/24 01:05:10;;;;;;;19.35;7.97;;;17.10;99.90;;;;;;5092878;28;20166;-76
2021/09/24 01:07:41;;;;;;;9.38;6.63;;;17.30;99.90;;;;;;5092846;28;20170;-76
2021/09/24 01:10:08;;;;;;;13.98;7.75;;;17.20;99.90;;;;;;5092538;28;20223;-76
2021/09/24 01:12:35;;;;;;;24.00;8.13;;;17.20;99.90;;;;;;5092503;28;20189;-76
2021/09/24 01:15:03;;;;;;;18.05;8.20;;;17.30;99.90;;;;;;5092774;28;20170;-75
2021/09/24 01:17:29;;;;;;;15.73;7.25;;;17.30;99.90;;;;;;5092406;28;20162;-76
2021/09/24 01:19:55;;;;;;;12.50;8.38;;;17.30;99.90;;;;;;5091229;28;20498;-76
2021/09/24 01:22:20;;;;;;;8.70;7.70;;;17.40;99.90;;;;;;5094370;28;20174;-75
2021/09/24 01:24:46;;;;;;;12.98;7.63;;;17.40;99.90;;;;;;5092350;28;20214;-76
2021/09/24 01:27:12;;;;;;;15.68;7.45;;;17.40;99.90;;;;;;5092960;28;20252;-76
2021/09/24 01:29:38;;;;;;;12.75;7.30;;;17.50;99.90;;;;;;5094360;28;20567;-75
2021/09/24 01:32:04;;;;;;;12.13;7.60;;;17.50;99.90;;;;;;5094542;28;20571;-76
2021/09/24 01:34:29;;;;;;;12.90;7.07;;;17.50;99.90;;;;;;5094756;28;20198;-76
2021/09/24 01:36:56;;;;;;;12.18;7.63;;;17.60;99.90;;;;;;5095086;28;20182;-76
2021/09/24 01:39:22;;;;;;;11.82;7.25;;;17.40;99.90;;;;;;5101079;28;20276;-77
2021/09/24 01:41:49;;;;;;;12.85;7.28;;;17.30;99.90;;;;;;5096204;28;20590;-76
2021/09/24 01:44:16;;;;;;;10.85;7.00;;;17.50;99.90;;;;;;5096877;28;20174;-77
2021/09/24 01:46:45;;;;;;;13.55;7.38;;;17.50;99.90;;;;;;5094854;28;20178;-76
2021/09/24 01:49:11;;;;;;;11.32;7.18;;;17.50;99.90;;;;;;5096227;28;20210;-75
2021/09/24 01:51:40;;;;;;;9.50;6.80;;;17.50;99.90;;;;;;5096414;28;20645;-75
2021/09/24 01:54:06;;;;;;;11.13;7.07;;;17.60;99.90;;;;;;5096326;28;20215;-75
2021/09/24 01:56:32;;;;;;;17.02;7.72;;;17.50;99.90;;;;;;5096039;28;20186;-76
2021/09/24 01:58:58;;;;;;;13.85;8.02;;;17.50;99.90;;;;;;5095864;28;20197;-75
2021/09/24 02:01:24;;;;;;;9.50;6.78;;;17.60;99.90;;;;;;5099982;28;20162;-77
2021/09/24 02:03:50;;;;;;;8.63;7.60;;;17.70;99.90;;;;;;5098058;28;20170;-75
2021/09/24 02:06:16;;;;;;;13.35;7.75;;;17.70;99.90;;;;;;5098179;28;20610;-76
2021/09/24 02:08:42;;;;;;;14.15;7.97;;;17.80;99.90;;;;;;5096714;28;20256;-76
2021/09/24 02:11:10;;;;;;;21.80;8.18;;;17.70;99.90;;;;;;5096783;28;20260;-76
2021/09/24 02:13:40;;;;;;;16.83;8.32;;;17.70;99.90;;;;;;5097535;28;20215;-76
2021/09/24 02:16:07;;;;;;;14.10;8.88;;;17.70;99.90;;;;;;5096961;28;20168;-75
2021/09/24 02:18:33;;;;;;;14.65;7.60;;;17.70;99.90;;;;;;5096032;28;20661;-76
2021/09/24 02:20:59;;;;;;;18.30;7.88;;;17.60;99.90;;;;;;5096485;28;20172;-77
2021/09/24 02:23:24;;;;;;;15.95;7.90;;;17.60;99.90;;;;;;5096924;28;20513;-77
2021/09/24 02:25:50;;;;;;;19.92;7.82;;;17.60;99.90;;;;;;5095882;28;20510;-76
2021/09/24 02:28:15;;;;;;;14.43;8.07;;;17.70;99.90;;;;;;5095852;28;20202;-77
2021/09/24 02:30:41;;;;;;;8.57;7.13;;;17.70;99.90;;;;;;5095400;28;20184;-77
2021/09/24 02:33:07;;;;;;;12.40;8.52;;;17.70;99.90;;;;;;5095818;28;20162;-76
2021/09/24 02:35:32;;;;;;;17.05;7.72;;;17.50;99.90;;;;;;5096455;28;20211;-76
2021/09/24 02:37:58;;;;;;;12.32;8.10;;;17.70;99.90;;;;;;5096415;28;20181;-76
2021/09/24 02:40:23;;;;;;;14.13;8.07;;;17.80;99.90;;;;;;5094194;28;20165;-76
2021/09/24 02:42:49;;;;;;;20.85;8.05;;;17.90;99.90;;;;;;5095475;28;20161;-76
2021/09/24 02:45:15;;;;;;;11.13;7.57;;;17.80;99.90;;;;;;5095659;28;20227;-76
2021/09/24 02:47:41;;;;;;;17.33;8.65;;;17.80;99.90;;;;;;5095594;28;20158;-79
2021/09/24 02:50:08;;;;;;;20.50;8.85;;;17.80;99.90;;;;;;5095273;28;20665;-75
2021/09/24 02:52:34;;;;;;;17.35;8.57;;;17.50;99.90;;;;;;5095066;28;20219;-76
2021/09/24 02:55:00;;;;;;;14.68;8.32;;;17.50;99.90;;;;;;5095158;28;20170;-77
2021/09/24 02:57:25;;;;;;;13.70;8.27;;;17.40;99.90;;;;;;5094753;28;20630;-82
2021/09/24 02:59:51;;;;;;;11.05;8.32;;;17.60;99.90;;;;;;5094306;28;20192;-75
2021/09/24 03:02:17;;;;;;;18.83;9.05;;;17.60;99.90;;;;;;5095552;28;20212;-75
2021/09/24 03:04:43;;;;;;;15.25;8.00;;;17.80;99.90;;;;;;5095137;28;20194;-75
2021/09/24 03:07:08;;;;;;;23.05;8.98;;;17.70;99.90;;;;;;5095254;28;20166;-75
2021/09/24 03:09:34;;;;;;;10.05;8.57;;;17.70;99.90;;;;;;5096493;28;20205;-76
2021/09/24 03:12:00;;;;;;;18.15;7.88;;;17.80;99.90;;;;;;5095936;28;20494;-76
2021/09/24 03:14:25;;;;;;;13.07;8.18;;;18.00;99.90;;;;;;5096666;28;20571;-76
2021/09/24 03:16:51;;;;;;;11.80;8.50;;;17.90;99.90;;;;;;5094831;28;20154;-75
2021/09/24 03:19:20;;;;;;;23.73;7.63;;;17.70;99.90;;;;;;5095551;28;20273;-76
2021/09/24 03:21:47;;;;;;;13.30;8.13;;;17.70;99.90;;;;;;5095703;28;20245;-75
2021/09/24 03:24:13;;;;;;;10.95;6.85;;;17.90;99.90;;;;;;5096792;28;20170;-76
2021/09/24 03:26:38;;;;;;;21.77;7.50;;;17.90;99.90;;;;;;5098061;28;20158;-77
2021/09/24 03:29:04;;;;;;;13.45;6.32;;;18.00;99.90;;;;;;5099996;28;20290;-76
2021/09/24 03:31:30;;;;;;;23.50;7.05;;;18.00;99.90;;;;;;5099556;28;20154;-75
2021/09/24 03:33:55;;;;;;;9.70;7.57;;;18.00;99.90;;;;;;5096551;28;20196;-83
2021/09/24 03:36:21;;;;;;;19.50;7.88;;;18.00;99.90;;;;;;5095562;28;20166;-75
2021/09/24 03:38:46;;;;;;;12.02;7.72;;;17.90;99.90;;;;;;5095667;28;20193;-76
2021/09/24 03:41:12;;;;;;;17.77;8.65;;;18.00;99.90;;;;;;5095323;28;20622;-75
2021/09/24 03:43:38;;;;;;;21.90;9.70;;;18.00;99.90;;;;;;5094693;28;20181;-80
2021/09/24 03:46:04;;;;;;;17.50;8.80;;;17.80;99.90;;;;;;5097430;28;20164;-76
2021/09/24 03:48:30;;;;;;;11.73;8.30;;;17.90;99.90;;;;;;5095985;28;20197;-76
2021/09/24 03:50:56;;;;;;;14.80;8.15;;;17.90;99.90;;;;;;5095659;28;20610;-77
2021/09/24 03:53:22;;;;;;;17.27;9.15;;;17.70;99.90;;;;;;5094971;28;20162;-85
2021/09/24 03:55:52;;;;;;;13.02;8.95;;;17.60;99.90;;;;;;5094671;28;20660;-84
2021/09/24 03:58:18;;;;;;;18.33;9.32;;;17.50;99.90;;;;;;5095276;28;20589;-77
2021/09/24 04:00:44;;;;;;;18.08;8.88;;;17.50;99.90;;;;;;5094297;28;20567;-75
2021/09/24 04:03:09;;;;;;;14.43;8.52;;;17.60;99.90;;;;;;5092501;28;20621;-75
2021/09/24 04:05:35;;;;;;;17.05;9.25;;;17.60;99.90;;;;;;5093919;28;20162;-75
2021/09/24 04:08:00;;;;;;;13.43;8.95;;;17.70;99.90;;;;;;5095146;28;20585;-76
2021/09/24 04:10:26;;;;;;;20.40;9.15;;;17.70;99.90;;;;;;5095057;28;20170;-76
2021/09/24 04:12:52;;;;;;;11.90;8.43;;;17.80;99.90;;;;;;5094261;28;20185;-75
2021/09/24 04:15:17;;;;;;;15.73;8.32;;;17.80;99.90;;;;;;5095688;28;20211;-77
2021/09/24 04:17:43;;;;;;;17.15;8.73;;;17.60;99.90;;;;;;5093582;28;20220;-76
2021/09/24 04:20:09;;;;;;;20.88;7.82;;;17.70;99.90;;;;;;5093968;28;20178;-78
2021/09/24 04:22:35;;;;;;;15.85;7.38;;;17.80;99.90;;;;;;5094156;28;20165;-77
2021/09/24 04:25:00;;;;;;;19.92;7.93;;;17.70;99.90;;;;;;5092728;28;20180;-82
2021/09/24 04:27:26;;;;;;;20.02;7.93;;;17.80;99.90;;;;;;5093565;28;20162;-83
2021/09/24 04:29:51;;;;;;;13.48;7.55;;;17.80;99.90;;;;;;5093435;28;20342;-78
2021/09/24 04:32:17;;;;;;;12.88;7.63;;;17.70;99.90;;;;;;5093307;28;20193;-76
2021/09/24 04:34:43;;;;;;;18.38;8.07;;;17.80;99.90;;;;;;5094081;28;20185;-76
2021/09/24 04:37:08;;;;;;;16.02;8.82;;;17.70;99.90;;;;;;5093482;28;20173;-76
2021/09/24 04:39:34;;;;;;;11.05;8.70;;;17.80;99.90;;;;;;5093333;28;20188;-81
2021/09/24 04:42:00;;;;;;;27.95;10.48;;;17.80;99.90;;;;;;5093705;28;20154;-79
2021/09/24 04:44:25;;;;;;;22.45;9.48;;;17.80;99.90;;;;;;5092676;28;20173;-75
2021/09/24 04:46:51;;;;;;;13.88;9.93;;;17.60;99.90;;;;;;5093593;28;20194;-75
2021/09/24 04:49:17;;;;;;;21.13;10.45;;;17.70;99.90;;;;;;5093169;28;20201;-76
2021/09/24 04:51:44;;;;;;;16.42;11.13;;;17.80;99.90;;;;;;5093241;28;20189;-76
2021/09/24 04:54:10;;;;;;;15.75;9.43;;;17.80;99.90;;;;;;5093471;28;20195;-79
2021/09/24 04:56:35;;;;;;;15.55;9.32;;;17.70;99.90;;;;;;5093626;28;20241;-76
2021/09/24 04:59:01;;;;;;;15.98;9.85;;;17.80;99.90;;;;;;5092955;28;20649;-77
2021/09/24 05:01:27;;;;;;;16.77;10.60;;;17.90;99.90;;;;;;5093777;28;20168;-76
2021/09/24 05:03:54;;;;;;;16.17;9.45;;;18.10;99.90;;;;;;5091518;28;20180;-75
2021/09/24 05:06:19;;;;;;;16.77;9.95;;;18.00;99.90;;;;;;5093039;28;20156;-82
2021/09/24 05:08:45;;;;;;;12.63;10.02;;;17.70;99.90;;;;;;5092362;28;20220;-76
2021/09/24 05:11:10;;;;;;;15.15;10.57;;;17.60;99.90;;;;;;5093057;28;20185;-75
2021/09/24 05:13:36;;;;;;;14.20;10.88;;;17.80;99.90;;;;;;5093060;28;20205;-75
2021/09/24 05:16:02;;;;;;;19.83;9.13;;;17.70;99.90;;;;;;5092710;28;20231;-76
2021/09/24 05:18:27;;;;;;;12.23;9.55;;;17.60;99.90;;;;;;5092508;28;20243;-80
2021/09/24 05:20:53;;;;;;;25.75;8.95;;;17.60;99.90;;;;;;5092495;28;20179;-78
2021/09/24 05:23:18;;;;;;;20.00;10.25;;;17.60;99.90;;;;;;5092636;28;20169;-75
2021/09/24 05:25:44;;;;;;;18.95;10.23;;;17.70;99.90;;;;;;5091892;28;20555;-75
2021/09/24 05:28:10;;;;;;;15.45;9.65;;;17.60;99.90;;;;;;5092801;28;20331;-76
2021/09/24 05:30:36;;;;;;;18.80;9.82;;;17.70;99.90;;;;;;5092637;28;20174;-76
2021/09/24 05:33:02;;;;;;;22.45;10.15;;;17.70;99.90;;;;;;5092590;28;20242;-78
2021/09/24 05:35:27;;;;;;;12.57;10.35;;;17.80;99.90;;;;;;5092282;28;20223;-78
2021/09/24 05:37:53;;;;;;;19.45;11.10;;;17.80;99.90;;;;;;5092306;28;20197;-76
2021/09/24 05:40:19;;;;;;;21.80;11.57;;;18.00;99.90;;;;;;5092536;28;20185;-76
2021/09/24 05:42:44;;;;;;;18.15;10.40;;;17.80;99.90;;;;;;5092541;28;20173;-76
2021/09/24 05:45:13;;;;;;;23.27;11.77;;;17.70;99.90;;;;;;5092139;28;20169;-77
2021/09/24 05:47:40;;;;;;;22.05;10.77;;;17.70;99.90;;;;;;5092060;28;20169;-88
2021/09/24 05:50:12;;;;;;;20.45;11.82;;;17.80;99.90;;;;;;5091116;28;20648;-77
2021/09/24 05:52:44;;;;;;;21.30;10.80;;;17.70;99.90;;;;;;5092621;28;20241;-75
2021/09/24 05:55:11;;;;;;;25.48;12.20;;;17.50;99.90;;;;;;5092361;28;20207;-76
2021/09/24 05:57:37;;;;;;;23.90;11.45;;;17.50;99.90;;;;;;5091826;28;20173;-76
2021/09/24 06:00:09;;;;;;;18.58;11.23;;;17.60;99.90;;;;;;5091653;28;20184;-75
2021/09/24 06:02:35;;;;;;;26.90;11.52;;;17.60;99.90;;;;;;5091804;28;20166;-76
2021/09/24 06:05:00;;;;;;;19.40;11.70;;;17.60;99.90;;;;;;5092086;28;20166;-75
2021/09/24 06:07:26;;;;;;;26.13;10.60;;;17.60;99.90;;;;;;5092229;28;20166;-75
2021/09/24 06:09:52;;;;;;;23.38;12.05;;;17.70;99.90;;;;;;5099317;28;20218;-74
2021/09/24 06:12:18;;;;;;;19.75;10.27;;;17.60;99.90;;;;;;5107748;28;20185;-75
2021/09/24 06:14:45;;;;;;;26.50;11.38;;;17.70;99.90;;;;;;5107082;28;20178;-75
2021/09/24 06:17:11;;;;;;;21.27;11.48;;;17.70;99.90;;;;;;5096087;28;20178;-77
2021/09/24 06:19:38;;;;;;;18.13;11.20;;;17.80;99.90;;;;;;5092410;28;20189;-75
2021/09/24 06:22:05;;;;;;;19.27;11.95;;;18.00;99.90;;;;;;5092591;28;20169;-76
2021/09/24 06:24:31;;;;;;;21.95;11.23;;;17.90;99.90;;;;;;5091844;28;20749;-76
2021/09/24 06:26:56;;;;;;;24.33;11.05;;;17.80;99.90;;;;;;5090903;28;20245;-76
2021/09/24 06:29:22;;;;;;;22.23;11.77;;;18.00;99.90;;;;;;5092009;28;20210;-77
2021/09/24 06:31:48;;;;;;;18.67;10.93;;;18.00;99.90;;;;;;5091963;28;20166;-76
2021/09/24 06:34:13;;;;;;;13.55;9.80;;;18.00;99.90;;;;;;5091537;28;20518;-77
2021/09/24 06:36:39;;;;;;;22.90;11.20;;;18.00;99.90;;;;;;5094233;28;20165;-76
2021/09/24 06:39:05;;;;;;;16.50;9.65;;;18.00;99.90;;;;;;5094251;28;20220;-75
2021/09/24 06:41:31;;;;;;;17.63;10.48;;;18.10;99.90;;;;;;5094506;28;20244;-75
2021/09/24 06:43:56;;;;;;;19.42;9.85;;;18.10;99.90;;;;;;5093506;28;20517;-75
2021/09/24 06:46:22;;;;;;;18.17;10.35;;;18.10;99.90;;;;;;5094855;28;20246;-75
2021/09/24 06:48:47;;;;;;;19.65;9.85;;;18.10;99.90;;;;;;5094882;28;20301;-76
2021/09/24 06:51:13;;;;;;;20.42;10.75;;;18.20;99.90;;;;;;5094473;28;20627;-75
2021/09/24 06:53:39;;;;;;;16.13;9.77;;;18.20;99.90;;;;;;5094889;28;20173;-76
2021/09/24 06:56:05;;;;;;;19.55;9.15;;;18.20;99.90;;;;;;5095995;28;20166;-76
2021/09/24 06:58:30;;;;;;;19.00;9.80;;;18.20;99.90;;;;;;5095070;28;20189;-77
2021/09/24 07:00:56;;;;;;;16.88;8.68;;;18.30;99.90;;;;;;5095202;28;20207;-76
2021/09/24 07:03:22;;;;;;;15.95;8.93;;;18.30;99.90;;;;;;5093336;28;20224;-76
2021/09/24 07:05:47;;;;;;;21.83;9.63;;;18.40;99.90;;;;;;5094967;28;20634;-76
2021/09/24 07:08:13;;;;;;;15.65;9.65;;;18.60;99.90;;;;;;5094657;28;20194;-76
2021/09/24 07:10:39;;;;;;;17.05;8.20;;;18.50;99.90;;;;;;5094336;28;20660;-77
2021/09/24 07:13:05;;;;;;;18.80;8.65;;;18.50;99.90;;;;;;5094579;28;20249;-76
2021/09/24 07:15:30;;;;;;;15.63;9.38;;;18.50;99.90;;;;;;5095698;28;20166;-80
2021/09/24 07:17:56;;;;;;;19.77;7.97;;;18.70;99.90;;;;;;5094644;28;20488;-82
2021/09/24 07:20:22;;;;;;;17.60;8.95;;;18.70;99.90;;;;;;5095532;28;20241;-84
2021/09/24 07:22:49;;;;;;;12.95;8.15;;;18.60;99.90;;;;;;5094073;28;20231;-84
2021/09/24 07:25:16;;;;;;;13.43;8.20;;;18.60;99.90;;;;;;5093812;28;20211;-87
2021/09/24 07:27:42;;;;;;;19.35;8.73;;;18.60;99.90;;;;;;5095457;28;20177;-79
2021/09/24 07:30:09;;;;;;;22.63;8.43;;;18.60;99.90;;;;;;5094438;28;20205;-81
2021/09/24 07:32:35;;;;;;;21.45;8.57;;;18.60;99.90;;;;;;5094562;28;20176;-85
2021/09/24 07:35:01;;;;;;;14.32;8.63;;;18.70;99.90;;;;;;5093620;28;20252;-82
2021/09/24 07:37:26;;;;;;;13.23;8.27;;;18.60;99.90;;;;;;5093081;28;20259;-82
2021/09/24 07:39:52;;;;;;;19.88;8.88;;;18.70;99.90;;;;;;5092848;28;20245;-83
2021/09/24 07:42:18;;;;;;;10.90;8.73;;;18.80;99.90;;;;;;5093834;28;20166;-82
2021/09/24 07:44:43;;;;;;;15.13;9.23;;;18.60;99.90;;;;;;5094064;28;20161;-87
2021/09/24 07:47:09;;;;;;;28.88;9.70;;;18.60;99.90;;;;;;5099322;28;20204;-82
2021/09/24 07:49:35;;;;;;;27.00;9.35;;;18.70;99.90;;;;;;5098577;28;20684;-85
2021/09/24 07:52:01;;;;;;;13.73;8.60;;;18.90;99.90;;;;;;5097286;28;20227;-84
2021/09/24 07:54:27;;;;;;;12.05;9.18;;;18.90;99.90;;;;;;5094766;28;20524;-84
2021/09/24 07:56:53;;;;;;;14.23;9.05;;;19.00;99.90;;;;;;5094695;28;20162;-94
2021/09/24 07:59:20;;;;;;;20.20;8.93;;;18.90;99.90;;;;;;5095312;28;20213;-84
2021/09/24 08:01:46;;;;;;;11.52;8.95;;;18.80;99.90;;;;;;5094911;28;20542;-93
2021/09/24 08:04:11;;;;;;;25.05;10.15;;;18.80;99.90;;;;;;5096442;28;20172;-85
2021/09/24 08:06:37;;;;;;;18.30;9.55;;;18.90;99.90;;;;;;5100783;28;20193;-84
2021/09/24 08:09:05;;;;;;;19.95;9.75;;;19.00;99.90;;;;;;5107541;28;20189;-89
2021/09/24 08:11:31;;;;;;;18.63;8.25;;;19.30;99.90;;;;;;5102606;28;20185;-89
2021/09/24 08:13:57;;;;;;;21.00;8.68;;;19.50;99.90;;;;;;5096708;28;20170;-94
2021/09/24 08:16:23;;;;;;;14.05;8.90;;;19.50;99.90;;;;;;5096241;28;20524;-91
2021/09/24 08:18:49;;;;;;;10.52;7.97;;;19.40;99.90;;;;;;5096310;28;20665;-92
2021/09/24 08:21:14;;;;;;;10.82;7.13;;;19.40;99.90;;;;;;5093624;28;20185;-81
2021/09/24 08:23:41;;;;;;;15.57;8.77;;;19.50;99.90;;;;;;5094672;28;20203;-86
2021/09/24 08:26:09;;;;;;;21.15;8.15;;;19.70;99.90;;;;;;5076527;28;20265;-88
2021/09/24 08:28:35;;;;;;;19.77;8.32;;;19.80;99.90;;;;;;5073571;28;20221;-83
2021/09/24 08:31:01;;;;;;;12.75;7.97;;;19.60;99.90;;;;;;5075313;28;20170;-87
2021/09/24 08:33:27;;;;;;;11.65;7.80;;;19.70;99.90;;;;;;5074573;28;20209;-84
2021/09/24 08:35:54;;;;;;;14.25;8.63;;;19.80;99.90;;;;;;5075165;28;20258;-93
2021/09/24 08:38:20;;;;;;;17.77;9.30;;;19.80;99.90;;;;;;5074933;28;20179;-84
2021/09/24 08:40:46;;;;;;;19.20;7.65;;;20.00;99.90;;;;;;5076856;28;20177;-86
2021/09/24 08:43:13;;;;;;;15.02;7.93;;;20.10;99.90;;;;;;5077079;28;20154;-88
2021/09/24 08:45:40;;;;;;;18.60;8.63;;;20.20;99.90;;;;;;5077799;28;20238;-92
2021/09/24 08:48:10;;;;;;;17.63;7.55;;;20.30;99.90;;;;;;5078616;28;20190;-89
2021/09/24 08:50:37;;;;;;;8.77;7.32;;;20.30;99.90;;;;;;5078167;28;20192;-92
2021/09/24 08:53:04;;;;;;;15.95;6.85;;;20.50;99.90;;;;;;5085555;28;20178;-84
2021/09/24 08:55:32;;;;;;;12.63;6.68;;;20.70;99.90;;;;;;5087356;28;20170;-81
2021/09/24 08:57:58;;;;;;;8.88;7.20;;;20.80;99.90;;;;;;5085565;28;20190;-79
2021/09/24 09:00:26;;;;;;;12.35;6.88;;;20.90;99.90;;;;;;5090098;28;20174;-80
2021/09/24 09:02:57;;;;;;;13.60;6.90;;;20.90;99.90;;;;;;5091045;28;20177;-81
2021/09/24 09:05:25;;;;;;;13.90;6.75;;;20.80;99.90;;;;;;5073006;28;20653;-82
2021/09/24 09:08:03;;;;;;;11.35;7.57;;;20.90;99.90;;;;;;5073222;28;20190;-81
2021/09/24 09:10:38;;;;;;;10.60;7.38;;;20.90;99.90;;;;;;5073341;28;20174;-82
2021/09/24 09:13:09;;;;;;;13.48;6.45;;;20.90;99.90;;;;;;5070857;28;20168;-83
2021/09/24 09:15:36;;;;;;;7.10;6.25;;;21.00;99.90;;;;;;5075319;28;20178;-81
2021/09/24 09:18:03;;;;;;;9.98;6.13;;;21.10;99.90;;;;;;5074437;28;20200;-81
2021/09/24 09:20:30;;;;;;;10.35;5.57;;;21.10;99.90;;;;;;5075058;28;20682;-80
2021/09/24 09:22:59;;;;;;;12.65;6.78;;;21.30;99.90;;;;;;5077802;28;20798;-80
2021/09/24 09:25:25;;;;;;;12.27;5.97;;;21.30;99.90;;;;;;5076664;28;20243;-86
2021/09/24 09:27:57;;;;;;;7.82;6.60;;;21.40;99.90;;;;;;5073232;28;20186;-83
2021/09/24 09:30:24;;;;;;;6.40;5.80;;;21.50;99.90;;;;;;5073762;28;20243;-81
2021/09/24 09:33:04;;;;;;;8.35;6.15;;;21.50;99.90;;;;;;5073686;28;20171;-84
2021/09/24 09:35:38;;;;;;;8.88;6.25;;;21.20;99.90;;;;;;5074186;28;20166;-88
2021/09/24 09:38:04;;;;;;;10.98;6.82;;;21.40;99.90;;;;;;5073172;28;20665;-87
2021/09/24 09:40:30;;;;;;;21.17;6.07;;;21.50;99.90;;;;;;5074615;28;20170;-87
2021/09/24 09:42:57;;;;;;;8.63;6.40;;;21.70;99.90;;;;;;5074644;28;20169;-88
2021/09/24 09:45:24;;;;;;;14.15;7.57;;;21.90;99.90;;;;;;5073095;28;20253;-89
2021/09/24 09:47:50;;;;;;;7.47;6.78;;;22.20;99.90;;;;;;5075101;28;20193;-89
2021/09/24 09:50:27;;;;;;;19.45;6.78;;;22.10;99.90;;;;;;5074890;28;20210;-89
2021/09/24 09:53:03;;;;;;;9.38;6.03;;;22.10;99.90;;;;;;5076240;28;20249;-90
2021/09/24 09:55:34;;;;;;;8.98;5.43;;;22.30;99.90;;;;;;5076085;28;20193;-89
2021/09/24 09:58:10;;;;;;;20.65;5.13;;;22.20;99.90;;;;;;5076186;28;20183;-85
2021/09/24 10:00:52;;;;;;;17.10;5.90;;;22.40;99.90;;;;;;5075475;28;20609;-88
2021/09/24 10:03:18;;;;;;;7.43;5.75;;;22.40;99.90;;;;;;5074917;28;20265;-90
2021/09/24 10:05:44;;;;;;;7.03;5.50;;;22.20;99.90;;;;;;5074831;28;20171;-89
2021/09/24 10:08:27;;;;;;;9.73;5.13;;;22.10;99.90;;;;;;5076878;28;20239;-78
2021/09/24 10:11:05;;;;;;;16.95;5.30;;;22.10;99.90;;;;;;5075366;28;20665;-79
2021/09/24 10:13:55;;;;;;;13.05;6.05;;;22.00;99.90;;;;;;5075909;28;20162;-79
2021/09/24 10:16:23;;;;;;;9.30;7.20;;;22.20;99.90;;;;;;5069200;28;20548;-79
2021/09/24 10:18:48;;;;;;;10.18;5.82;;;22.30;99.90;;;;;;5074962;28;20186;-77
2021/09/24 10:21:15;;;;;;;8.65;5.80;;;22.50;99.90;;;;;;5075170;28;20223;-78
2021/09/24 10:23:43;;;;;;;12.30;6.05;;;22.60;99.90;;;;;;5075170;28;20159;-77
2021/09/24 10:26:15;;;;;;;8.75;6.18;;;22.70;99.90;;;;;;5075314;28;20167;-78
2021/09/24 10:28:42;;;;;;;9.02;4.72;;;22.50;99.90;;;;;;5075007;28;20201;-77
2021/09/24 10:31:15;;;;;;;4.03;3.63;;;22.70;99.90;;;;;;5076694;28;20505;-78
2021/09/24 10:33:44;;;;;;;5.68;4.15;;;23.00;99.90;;;;;;5075711;28;20159;-79
2021/09/24 10:36:10;;;;;;;8.32;3.45;;;23.20;99.90;;;;;;5074822;28;20212;-78
2021/09/24 10:38:44;;;;;;;11.45;4.43;;;23.20;99.90;;;;;;5076201;28;20198;-76
2021/09/24 10:41:14;;;;;;;7.47;3.85;;;23.40;99.90;;;;;;5074873;28;20204;-81
2021/09/24 10:43:45;;;;;;;5.15;4.07;;;23.20;99.90;;;;;;5074467;28;20178;-78
2021/09/24 10:46:35;;;;;;;6.95;4.28;;;23.00;99.90;;;;;;5073297;28;20201;-78
2021/09/24 10:49:15;;;;;;;10.00;3.72;;;22.70;99.90;;;;;;5074217;28;20205;-78
2021/09/24 10:51:57;;;;;;;7.25;5.28;;;22.50;99.90;;;;;;5074347;28;20174;-75
2021/09/24 10:54:25;;;;;;;7.93;4.07;;;22.40;99.90;;;;;;5074121;28;20163;-76
2021/09/24 10:57:11;;;;;;;5.50;3.85;;;22.40;99.90;;;;;;5074638;28;20720;-77
2021/09/24 10:59:37;;;;;;;6.68;3.60;;;22.50;99.90;;;;;;5072726;28;20198;-76
2021/09/24 11:02:41;;;;;;;4.35;3.55;;;22.50;99.90;;;;;;5074279;28;20195;-76
2021/09/24 11:05:09;;;;;;;6.95;3.47;;;22.50;99.90;;;;;;5074118;28;20166;-75
2021/09/24 11:07:36;;;;;;;4.72;3.58;;;22.50;99.90;;;;;;5074015;28;20320;-76
2021/09/24 11:10:04;;;;;;;4.45;4.05;;;22.60;99.90;;;;;;5074185;28;20210;-75
2021/09/24 11:12:30;;;;;;;8.15;4.38;;;22.70;99.90;;;;;;5072703;28;20570;-75
2021/09/24 11:15:11;;;;;;;6.88;3.50;;;22.90;99.90;;;;;;5074369;28;20215;-80
2021/09/24 11:17:46;;;;;;;6.88;3.67;;;22.90;99.90;;;;;;5073767;28;20162;-77
2021/09/24 11:20:33;;;;;;;4.60;3.50;;;23.10;99.90;;;;;;5073243;28;20618;-78
2021/09/24 11:23:00;;;;;;;7.93;3.92;;;23.40;99.90;;;;;;5074118;28;20546;-79
2021/09/24 11:25:25;;;;;;;4.70;3.38;;;23.20;99.90;;;;;;5073885;28;20194;-80
2021/09/24 11:27:53;;;;;;;5.97;3.45;;;23.10;99.90;;;;;;5073909;28;20213;-80
2021/09/24 11:30:25;;;;;;;7.07;3.67;;;23.20;99.90;;;;;;5074116;28;20206;-79
2021/09/24 11:32:57;;;;;;;6.00;3.00;;;23.10;99.90;;;;;;5073672;28;20163;-79
2021/09/24 11:35:39;;;;;;;7.57;3.40;;;23.30;99.90;;;;;;5073930;28;20203;-79
2021/09/24 11:38:25;;;;;;;7.88;3.10;;;23.40;99.90;;;;;;5073731;28;20214;-79
2021/09/24 11:40:57;;;;;;;12.48;3.05;;;22.90;99.90;;;;;;5079619;28;20653;-79
2021/09/24 11:43:32;;;;;;;4.45;2.58;;;22.80;99.90;;;;;;5085302;28;20151;-79
2021/09/24 11:46:00;;;;;;;9.57;3.90;;;22.90;99.90;;;;;;5094154;28;20249;-79
2021/09/24 11:48:32;;;;;;;5.88;2.45;;;23.20;99.90;;;;;;5073990;28;20217;-78
2021/09/24 11:51:12;;;;;;;4.63;2.13;;;23.10;99.90;;;;;;5077117;28;20178;-79
2021/09/24 11:53:58;;;;;;;8.43;1.80;;;22.70;99.90;;;;;;5072845;28;20190;-78
2021/09/24 11:56:35;;;;;;;2.85;1.45;;;22.60;99.90;;;;;;5073091;28;20289;-77
2021/09/24 11:59:11;;;;;;;1.77;1.52;;;22.70;99.90;;;;;;5073370;28;20186;-79
2021/09/24 12:01:40;;;;;;;2.08;1.60;;;22.90;99.90;;;;;;5073890;28;20557;-78
2021/09/24 12:04:08;;;;;;;3.53;1.58;;;23.10;99.90;;;;;;5072357;28;20182;-78
2021/09/24 12:06:38;;;;;;;1.55;1.35;;;23.00;99.90;;;;;;5075571;28;20184;-78
2021/09/24 12:09:12;;;;;;;1.50;1.40;;;23.50;99.90;;;;;;5074912;28;20240;-78
2021/09/24 12:11:45;;;;;;;3.30;1.50;;;23.50;99.90;;;;;;5073043;28;20254;-81
2021/09/24 12:14:13;;;;;;;2.25;1.23;;;23.60;99.90;;;;;;5073019;28;20158;-78
2021/09/24 12:16:40;;;;;;;1.63;1.30;;;23.60;99.90;;;;;;5071779;28;20171;-78
2021/09/24 12:19:15;;;;;;;4.68;1.35;;;23.70;99.90;;;;;;5072344;28;20237;-78
2021/09/24 12:21:42;;;;;;;2.75;2.03;;;23.70;99.90;;;;;;5072760;28;20606;-78
2021/09/24 12:24:09;;;;;;;1.30;1.20;;;23.70;99.90;;;;;;5072612;28;20626;-78
2021/09/24 12:26:40;;;;;;;2.13;1.20;;;23.30;99.90;;;;;;5073255;28;20171;-78
2021/09/24 12:29:07;;;;;;;3.70;1.33;;;23.20;99.90;;;;;;5072579;28;20202;-78
2021/09/24 12:31:34;;;;;;;1.35;1.02;;;23.00;99.90;;;;;;5074298;28;20228;-78
2021/09/24 12:34:00;;;;;;;3.33;0.90;;;22.80;99.90;;;;;;5072764;28;20627;-78
2021/09/24 12:36:25;;;;;;;3.88;1.10;;;22.60;99.90;;;;;;5072988;28;20219;-78
2021/09/24 12:38:52;;;;;;;1.05;0.98;;;22.60;99.90;;;;;;5073280;28;20186;-77
2021/09/24 12:41:18;;;;;;;2.95;0.90;;;22.60;99.90;;;;;;5073345;28;20174;-79